Time;durP1;ratioP1;P1;durP2;ratioP2;P2;SDS_P1;SDS_P2;PMS_P1;PMS_P2;Temp;Humidity;BMP_temperature;BMP_pressure;BME280_temperature;BME280_humidity;BME280_pressure;Samples;Min_cycle;Max_cycle;Signal;HPM_P1;HPM_P2
2022/10/10 00:00:38;;;;;;;10.00;5.63;;;14.50;99.90;;;;;;5057762;28;20320;-70
2022/10/10 00:03:04;;;;;;;5.70;5.10;;;14.50;99.90;;;;;;5056842;28;20461;-71
2022/10/10 00:05:30;;;;;;;8.00;5.70;;;14.40;99.90;;;;;;5059120;28;20453;-71
2022/10/10 00:07:55;;;;;;;10.10;5.60;;;14.30;99.90;;;;;;5058635;28;20488;-71
2022/10/10 00:10:21;;;;;;;5.20;4.23;;;14.30;99.90;;;;;;5055522;28;20183;-72
2022/10/10 00:12:47;;;;;;;8.67;5.13;;;14.30;99.90;;;;;;5053775;28;20187;-72
2022/10/10 00:15:14;;;;;;;5.10;4.10;;;14.20;99.90;;;;;;5058929;28;20192;-71
2022/10/10 00:17:42;;;;;;;5.20;4.27;;;14.20;99.90;;;;;;5057812;28;20229;-72
2022/10/10 00:20:12;;;;;;;7.50;4.03;;;14.10;99.90;;;;;;5057030;28;21093;-71
2022/10/10 00:22:38;;;;;;;5.97;4.90;;;13.90;99.90;;;;;;5054459;28;20479;-70
2022/10/10 00:25:05;;;;;;;12.03;4.90;;;13.90;99.90;;;;;;5058983;28;21012;-71
2022/10/10 00:27:30;;;;;;;7.33;4.53;;;13.80;99.90;;;;;;5060589;28;20513;-70
2022/10/10 00:29:57;;;;;;;6.50;4.10;;;13.70;99.90;;;;;;5058603;28;20516;-71
2022/10/10 00:32:22;;;;;;;5.60;4.47;;;13.60;99.90;;;;;;5056977;28;20693;-71
2022/10/10 00:34:48;;;;;;;6.60;4.70;;;13.60;99.90;;;;;;5057678;28;20452;-71
2022/10/10 00:37:13;;;;;;;5.10;4.60;;;13.60;99.90;;;;;;5057380;28;20250;-71
2022/10/10 00:39:39;;;;;;;5.83;4.47;;;13.50;99.90;;;;;;5054337;28;20238;-71
2022/10/10 00:42:05;;;;;;;8.13;5.00;;;13.40;99.90;;;;;;5053393;28;20238;-72
2022/10/10 00:44:30;;;;;;;9.70;4.70;;;13.50;99.90;;;;;;5056598;28;20183;-72
2022/10/10 00:46:56;;;;;;;5.87;4.00;;;13.50;99.90;;;;;;5056961;28;20467;-70
2022/10/10 00:49:26;;;;;;;7.13;4.40;;;13.60;99.90;;;;;;5057854;28;20207;-71
2022/10/10 00:51:56;;;;;;;5.30;4.33;;;13.60;99.90;;;;;;5055784;28;20183;-71
2022/10/10 00:54:23;;;;;;;5.63;4.03;;;13.50;99.90;;;;;;5055365;28;20528;-70
2022/10/10 00:56:53;;;;;;;5.60;4.40;;;13.50;99.90;;;;;;5058199;28;20464;-70
2022/10/10 00:59:19;;;;;;;6.60;4.30;;;13.60;99.90;;;;;;5036795;28;20441;-71
2022/10/10 01:01:46;;;;;;;6.10;4.40;;;13.60;99.90;;;;;;5054591;28;20473;-69
2022/10/10 01:04:47;;;;;;;7.10;4.97;;;13.60;99.90;;;;;;5055945;28;21030;-71
2022/10/10 01:07:20;;;;;;;6.23;4.53;;;13.60;99.90;;;;;;4975883;28;20983;-72
2022/10/10 01:09:49;;;;;;;5.63;4.63;;;13.60;99.90;;;;;;5045374;28;20963;-71
2022/10/10 01:12:24;;;;;;;5.70;4.20;;;13.70;99.90;;;;;;5054720;28;20433;-69
2022/10/10 01:14:55;;;;;;;5.77;4.10;;;13.70;99.90;;;;;;5056238;28;20444;-71
2022/10/10 01:17:46;;;;;;;8.87;5.20;;;13.70;99.90;;;;;;5052314;28;21204;-71
2022/10/10 01:20:49;;;;;;;5.73;4.77;;;13.70;99.90;;;;;;5060241;28;20471;-71
2022/10/10 01:23:37;;;;;;;7.10;4.87;;;13.80;99.90;;;;;;5057670;28;20767;-71
2022/10/10 01:26:37;;;;;;;9.10;5.10;;;13.70;99.90;;;;;;5043478;28;20458;-72
2022/10/10 01:29:07;;;;;;;7.03;4.77;;;13.80;99.90;;;;;;5058577;28;20438;-72
2022/10/10 01:31:38;;;;;;;11.40;5.60;;;13.80;99.90;;;;;;5056392;28;20462;-71
2022/10/10 01:34:25;;;;;;;5.83;3.97;;;13.80;99.90;;;;;;5054053;28;20421;-71
2022/10/10 01:36:51;;;;;;;8.27;4.10;;;13.80;99.90;;;;;;5051260;28;20519;-72
2022/10/10 01:39:30;;;;;;;10.17;5.00;;;13.80;99.90;;;;;;5053711;28;20418;-73
2022/10/10 01:42:02;;;;;;;4.20;3.80;;;13.80;99.90;;;;;;5061407;28;20214;-71
2022/10/10 01:44:27;;;;;;;5.43;4.27;;;13.80;99.90;;;;;;5056404;28;20427;-71
2022/10/10 01:46:53;;;;;;;5.50;4.30;;;13.80;99.90;;;;;;5058616;28;20507;-72
2022/10/10 01:49:24;;;;;;;5.30;4.50;;;13.90;99.90;;;;;;5058125;28;20758;-72
2022/10/10 01:51:52;;;;;;;6.60;4.50;;;13.90;99.90;;;;;;5056040;28;20176;-72
2022/10/10 01:54:28;;;;;;;7.60;5.43;;;13.90;99.90;;;;;;5055730;28;20443;-72
2022/10/10 01:56:59;;;;;;;7.47;4.20;;;13.90;99.90;;;;;;5055372;28;21067;-72
2022/10/10 01:59:47;;;;;;;6.40;4.90;;;13.90;99.90;;;;;;5057237;28;20547;-71
2022/10/10 02:02:34;;;;;;;9.60;4.80;;;13.90;99.90;;;;;;5055335;28;20876;-72
2022/10/10 02:05:05;;;;;;;5.70;4.40;;;13.90;99.90;;;;;;5056107;28;20421;-72
2022/10/10 02:07:41;;;;;;;6.30;4.47;;;13.90;99.90;;;;;;5055595;28;20524;-70
2022/10/10 02:10:09;;;;;;;5.63;4.27;;;13.80;99.90;;;;;;5055738;28;20429;-71
2022/10/10 02:12:35;;;;;;;4.60;4.10;;;13.80;99.90;;;;;;5039464;28;20617;-70
2022/10/10 02:15:09;;;;;;;8.07;4.80;;;13.90;99.90;;;;;;5056241;28;20444;-70
2022/10/10 02:17:38;;;;;;;5.87;4.50;;;13.80;99.90;;;;;;5058959;28;20429;-72
2022/10/10 02:20:06;;;;;;;6.80;4.60;;;13.80;99.90;;;;;;5052016;28;20433;-72
2022/10/10 02:22:33;;;;;;;5.70;4.30;;;13.80;99.90;;;;;;5053833;28;20582;-72
2022/10/10 02:25:00;;;;;;;5.80;4.50;;;13.80;99.90;;;;;;5058127;28;20475;-72
2022/10/10 02:27:43;;;;;;;7.90;6.40;;;13.80;99.90;;;;;;5054453;28;20464;-71
2022/10/10 02:30:09;;;;;;;5.00;4.20;;;13.80;99.90;;;;;;5053596;28;20437;-73
2022/10/10 02:32:55;;;;;;;8.07;4.33;;;13.80;99.90;;;;;;5049833;28;20448;-70
2022/10/10 02:35:34;;;;;;;8.33;3.87;;;13.80;99.90;;;;;;5053303;28;20468;-71
2022/10/10 02:38:02;;;;;;;5.77;5.17;;;13.80;99.90;;;;;;5057566;28;20534;-71
2022/10/10 02:40:31;;;;;;;10.33;5.30;;;13.80;99.90;;;;;;5052962;28;20974;-71
2022/10/10 02:42:59;;;;;;;5.63;4.27;;;13.70;99.90;;;;;;5056865;28;20465;-73
2022/10/10 02:45:27;;;;;;;7.43;4.60;;;13.70;99.90;;;;;;5036458;28;20841;-71
2022/10/10 02:47:53;;;;;;;8.87;4.50;;;13.70;99.90;;;;;;5053829;28;20476;-71
2022/10/10 02:50:20;;;;;;;6.43;4.17;;;13.70;99.90;;;;;;5052688;28;20525;-71
2022/10/10 02:52:45;;;;;;;7.23;5.63;;;13.70;99.90;;;;;;5053760;28;20184;-72
2022/10/10 02:55:11;;;;;;;6.47;4.80;;;13.70;99.90;;;;;;5056134;28;20437;-72
2022/10/10 02:57:36;;;;;;;5.07;4.00;;;13.70;99.90;;;;;;5057145;28;20225;-71
2022/10/10 03:00:04;;;;;;;5.83;4.27;;;13.70;99.90;;;;;;5054168;28;20703;-72
2022/10/10 03:02:29;;;;;;;5.30;4.70;;;13.70;99.90;;;;;;5033839;28;20206;-71
2022/10/10 03:04:55;;;;;;;4.73;4.20;;;13.70;99.90;;;;;;5052617;28;20440;-72
2022/10/10 03:07:21;;;;;;;8.23;4.30;;;13.60;99.90;;;;;;5057292;28;20217;-71
2022/10/10 03:09:46;;;;;;;6.27;4.77;;;13.70;99.90;;;;;;5053317;28;20175;-72
2022/10/10 03:12:12;;;;;;;6.70;5.07;;;13.60;99.90;;;;;;5054965;28;20658;-71
2022/10/10 03:14:37;;;;;;;7.03;4.80;;;13.60;99.90;;;;;;5053610;28;21242;-71
2022/10/10 03:17:03;;;;;;;5.57;4.83;;;13.60;99.90;;;;;;5053025;28;20254;-69
2022/10/10 03:19:28;;;;;;;5.97;5.27;;;13.60;99.90;;;;;;5055092;28;20183;-69
2022/10/10 03:21:54;;;;;;;5.83;5.07;;;13.60;99.90;;;;;;5054197;28;20277;-67
2022/10/10 03:24:20;;;;;;;13.90;5.33;;;13.60;99.90;;;;;;5055002;28;20286;-73
2022/10/10 03:26:45;;;;;;;6.80;5.17;;;13.60;99.90;;;;;;5052312;28;20210;-72
2022/10/10 03:29:11;;;;;;;5.43;4.67;;;13.60;99.90;;;;;;5057735;28;21023;-73
2022/10/10 03:31:36;;;;;;;5.93;4.93;;;13.60;99.90;;;;;;5047568;28;20220;-73
2022/10/10 03:34:02;;;;;;;5.93;4.73;;;13.60;99.90;;;;;;5032368;28;20270;-73
2022/10/10 03:36:29;;;;;;;6.97;4.80;;;13.60;99.90;;;;;;5042253;28;20195;-72
2022/10/10 03:38:55;;;;;;;7.97;5.00;;;13.60;99.90;;;;;;5052205;28;20265;-71
2022/10/10 03:41:20;;;;;;;7.03;4.30;;;13.60;99.90;;;;;;5051606;28;20541;-71
2022/10/10 03:43:46;;;;;;;8.33;5.73;;;13.60;99.90;;;;;;5037212;28;20348;-71
2022/10/10 03:46:11;;;;;;;7.00;4.80;;;13.60;99.90;;;;;;5039834;28;20222;-73
2022/10/10 03:48:37;;;;;;;6.00;4.87;;;13.50;99.90;;;;;;5050712;28;20233;-71
2022/10/10 03:51:03;;;;;;;8.93;5.13;;;13.50;99.90;;;;;;5057241;28;20237;-73
2022/10/10 03:53:28;;;;;;;5.53;4.30;;;13.50;99.90;;;;;;5060901;28;20722;-71
2022/10/10 03:55:54;;;;;;;6.63;4.27;;;13.50;99.90;;;;;;5061306;28;20218;-72
2022/10/10 03:58:20;;;;;;;7.73;4.83;;;13.50;99.90;;;;;;5060464;28;20795;-72
2022/10/10 04:00:55;;;;;;;6.60;4.80;;;13.50;99.90;;;;;;5061123;28;21353;-72
2022/10/10 04:03:22;;;;;;;8.80;6.23;;;13.50;99.90;;;;;;5060063;28;20500;-72
2022/10/10 04:05:47;;;;;;;7.37;5.67;;;13.40;99.90;;;;;;5057604;28;20581;-71
2022/10/10 04:08:13;;;;;;;5.67;4.43;;;13.40;99.90;;;;;;5060701;28;20517;-71
2022/10/10 04:10:38;;;;;;;6.90;4.60;;;13.40;99.90;;;;;;5059875;28;20180;-72
2022/10/10 04:13:04;;;;;;;6.20;4.90;;;13.40;99.90;;;;;;5061363;28;20504;-72
2022/10/10 04:15:31;;;;;;;7.20;4.80;;;13.40;99.90;;;;;;5057148;28;20214;-71
2022/10/10 04:17:57;;;;;;;6.87;4.90;;;13.40;99.90;;;;;;5058275;28;20274;-72
2022/10/10 04:20:23;;;;;;;9.73;4.67;;;13.40;99.90;;;;;;5056711;28;20429;-71
2022/10/10 04:22:49;;;;;;;9.70;4.90;;;13.40;99.90;;;;;;5056638;28;20464;-71
2022/10/10 04:25:14;;;;;;;9.10;4.90;;;13.40;99.90;;;;;;5058517;28;20429;-72
2022/10/10 04:27:40;;;;;;;5.70;5.10;;;13.40;99.90;;;;;;5060755;28;20258;-72
2022/10/10 04:30:06;;;;;;;7.13;5.67;;;13.40;99.90;;;;;;5056198;28;20559;-73
2022/10/10 04:32:32;;;;;;;7.73;4.90;;;13.40;99.90;;;;;;5059220;28;20289;-72
2022/10/10 04:34:57;;;;;;;5.30;4.60;;;13.30;99.90;;;;;;5056921;28;20928;-72
2022/10/10 04:37:23;;;;;;;8.00;4.63;;;13.30;99.90;;;;;;5056820;28;20230;-72
2022/10/10 04:39:49;;;;;;;7.77;4.70;;;13.30;99.90;;;;;;5056291;28;20179;-72
2022/10/10 04:42:14;;;;;;;7.50;4.50;;;13.30;99.90;;;;;;5042327;28;20234;-72
2022/10/10 04:44:40;;;;;;;13.43;5.27;;;13.30;99.90;;;;;;5060288;28;20186;-71
2022/10/10 04:47:06;;;;;;;7.23;5.20;;;13.30;99.90;;;;;;5056211;28;20473;-72
2022/10/10 04:49:31;;;;;;;5.30;4.80;;;13.30;99.90;;;;;;5057677;28;20452;-70
2022/10/10 04:51:57;;;;;;;17.43;4.90;;;13.30;99.90;;;;;;5056215;28;20202;-71
2022/10/10 04:54:22;;;;;;;8.13;4.80;;;13.30;99.90;;;;;;5060135;28;20568;-70
2022/10/10 04:56:48;;;;;;;9.20;5.93;;;13.30;99.90;;;;;;5055447;28;20210;-72
2022/10/10 04:59:14;;;;;;;7.43;4.70;;;13.30;99.90;;;;;;5058412;28;20183;-73
2022/10/10 05:01:39;;;;;;;6.97;5.27;;;13.40;99.90;;;;;;5057964;28;20178;-71
2022/10/10 05:04:05;;;;;;;5.37;4.43;;;13.40;99.90;;;;;;5059051;28;20465;-71
2022/10/10 05:06:31;;;;;;;5.97;5.20;;;13.40;99.90;;;;;;5055824;28;20196;-74
2022/10/10 05:08:57;;;;;;;11.43;5.60;;;13.40;99.90;;;;;;5058223;28;20187;-73
2022/10/10 05:11:22;;;;;;;5.87;4.70;;;13.40;99.90;;;;;;5042838;28;20445;-71
2022/10/10 05:13:50;;;;;;;9.40;5.27;;;13.50;99.90;;;;;;5049579;28;20229;-71
2022/10/10 05:16:16;;;;;;;5.70;5.07;;;13.50;99.90;;;;;;5055721;28;20199;-71
2022/10/10 05:18:42;;;;;;;5.90;5.30;;;13.60;99.90;;;;;;5054087;28;20438;-71
2022/10/10 05:21:10;;;;;;;10.23;5.13;;;13.60;99.90;;;;;;5053628;28;20448;-72
2022/10/10 05:23:37;;;;;;;7.80;6.17;;;13.60;99.90;;;;;;5057398;28;20195;-72
2022/10/10 05:26:03;;;;;;;12.63;5.77;;;13.60;99.90;;;;;;5060432;28;20979;-73
2022/10/10 05:28:29;;;;;;;6.60;5.67;;;13.60;99.90;;;;;;5057610;28;20513;-71
2022/10/10 05:30:55;;;;;;;6.20;5.47;;;13.60;99.90;;;;;;5059017;28;20520;-70
2022/10/10 05:33:21;;;;;;;8.50;5.67;;;13.70;99.90;;;;;;5055390;28;20191;-73
2022/10/10 05:35:46;;;;;;;9.47;5.97;;;13.70;99.90;;;;;;5059138;28;20202;-72
2022/10/10 05:38:12;;;;;;;15.73;6.07;;;13.70;99.90;;;;;;5060618;28;20224;-74
2022/10/10 05:40:41;;;;;;;6.50;5.40;;;13.70;99.90;;;;;;5059912;28;20265;-72
2022/10/10 05:43:07;;;;;;;7.80;5.90;;;13.80;99.90;;;;;;5061098;28;20700;-73
2022/10/10 05:45:33;;;;;;;7.53;4.93;;;13.80;99.90;;;;;;5042106;28;20445;-73
2022/10/10 05:47:58;;;;;;;7.07;5.40;;;13.80;99.90;;;;;;5057668;28;20548;-72
2022/10/10 05:50:32;;;;;;;6.63;5.20;;;13.80;99.90;;;;;;5058293;28;20190;-72
2022/10/10 05:52:58;;;;;;;9.13;5.67;;;13.90;99.90;;;;;;5057658;28;20170;-72
2022/10/10 05:55:24;;;;;;;9.17;5.97;;;13.80;99.90;;;;;;5043368;28;20503;-72
2022/10/10 05:57:49;;;;;;;11.97;6.30;;;13.90;99.90;;;;;;5052819;28;20328;-72
2022/10/10 06:00:15;;;;;;;8.57;6.17;;;13.90;99.90;;;;;;5056091;28;20463;-71
2022/10/10 06:02:41;;;;;;;9.90;5.33;;;13.90;99.90;;;;;;5057329;28;20561;-73
2022/10/10 06:05:07;;;;;;;7.17;6.47;;;13.90;99.90;;;;;;5042993;28;20931;-73
2022/10/10 06:07:33;;;;;;;7.03;5.40;;;13.90;99.90;;;;;;5057521;28;20183;-73
2022/10/10 06:09:59;;;;;;;9.30;5.30;;;14.00;99.90;;;;;;5055874;28;20483;-73
2022/10/10 06:12:24;;;;;;;7.00;5.23;;;14.00;99.90;;;;;;5055647;28;20558;-73
2022/10/10 06:14:50;;;;;;;6.47;5.07;;;14.00;99.90;;;;;;5053220;28;20187;-72
2022/10/10 06:17:15;;;;;;;6.83;5.50;;;13.90;99.90;;;;;;5056314;28;20583;-73
2022/10/10 06:19:41;;;;;;;12.33;5.50;;;13.90;99.90;;;;;;5054953;28;20258;-71
2022/10/10 06:22:07;;;;;;;10.80;5.20;;;13.90;99.90;;;;;;5052254;28;20231;-73
2022/10/10 06:24:32;;;;;;;7.30;5.60;;;13.80;99.90;;;;;;5033221;28;20187;-72
2022/10/10 06:26:58;;;;;;;7.33;4.70;;;13.80;99.90;;;;;;5056201;28;20221;-72
2022/10/10 06:29:24;;;;;;;6.20;5.17;;;14.00;99.90;;;;;;5058853;28;20689;-73
2022/10/10 06:31:49;;;;;;;6.10;5.50;;;13.90;99.90;;;;;;5053036;28;20179;-73
2022/10/10 06:34:15;;;;;;;5.40;4.67;;;14.00;99.90;;;;;;5055484;28;20192;-73
2022/10/10 06:36:40;;;;;;;5.40;4.80;;;14.10;99.90;;;;;;5055655;28;20201;-72
2022/10/10 06:39:06;;;;;;;6.90;4.47;;;14.20;99.90;;;;;;5055326;28;20187;-73
2022/10/10 06:41:31;;;;;;;5.53;4.63;;;14.30;99.90;;;;;;5059178;28;20826;-72
2022/10/10 06:43:57;;;;;;;6.60;4.93;;;14.30;99.90;;;;;;5053898;28;20183;-72
2022/10/10 06:46:23;;;;;;;9.00;5.50;;;14.30;99.90;;;;;;5052810;28;20206;-72
2022/10/10 06:48:48;;;;;;;13.50;5.13;;;14.30;99.90;;;;;;5054244;28;20190;-71
2022/10/10 06:51:15;;;;;;;8.10;5.40;;;14.40;99.90;;;;;;5053952;28;20217;-73
2022/10/10 06:53:42;;;;;;;7.30;5.27;;;14.40;99.90;;;;;;5051956;28;20889;-71
2022/10/10 06:56:16;;;;;;;5.30;4.80;;;14.40;99.90;;;;;;5052097;28;20518;-71
2022/10/10 06:58:42;;;;;;;6.10;5.07;;;14.40;99.90;;;;;;5056245;28;20760;-71
2022/10/10 07:01:08;;;;;;;6.23;4.97;;;14.50;99.90;;;;;;5058174;28;20445;-73
2022/10/10 07:03:34;;;;;;;12.80;7.30;;;14.50;99.90;;;;;;5058563;28;20211;-72
2022/10/10 07:06:00;;;;;;;8.20;5.50;;;14.40;99.90;;;;;;5058308;28;20452;-72
2022/10/10 07:08:27;;;;;;;9.90;5.27;;;14.40;99.90;;;;;;5041686;28;20183;-72
2022/10/10 07:10:53;;;;;;;9.63;5.33;;;14.40;99.90;;;;;;5045746;28;20426;-72
2022/10/10 07:13:19;;;;;;;8.40;5.50;;;14.40;99.90;;;;;;5053126;28;20441;-73
2022/10/10 07:15:44;;;;;;;8.23;6.63;;;14.30;99.90;;;;;;5053266;28;20210;-72
2022/10/10 07:18:10;;;;;;;11.20;7.50;;;14.30;99.90;;;;;;5051590;28;20237;-70
2022/10/10 07:20:37;;;;;;;10.53;5.90;;;14.30;99.90;;;;;;5057845;28;20866;-70
2022/10/10 07:23:06;;;;;;;6.93;5.50;;;14.30;99.90;;;;;;5043948;28;20903;-75
2022/10/10 07:25:39;;;;;;;10.00;5.40;;;14.30;99.90;;;;;;5063471;28;21891;-73
2022/10/10 07:28:06;;;;;;;12.37;5.70;;;14.30;99.90;;;;;;5061419;28;20744;-72
2022/10/10 07:30:34;;;;;;;7.77;5.77;;;14.40;99.90;;;;;;5058117;28;20465;-72
2022/10/10 07:33:00;;;;;;;9.60;5.90;;;14.30;99.90;;;;;;5038173;28;21022;-73
2022/10/10 07:35:26;;;;;;;7.43;6.03;;;14.30;99.90;;;;;;5057581;28;20516;-71
2022/10/10 07:37:55;;;;;;;8.67;6.17;;;14.20;99.90;;;;;;5024412;28;1067712;-72
2022/10/10 07:40:21;;;;;;;5.53;5.03;;;14.30;99.90;;;;;;5052596;28;20188;-72
2022/10/10 07:42:47;;;;;;;8.13;5.30;;;14.40;99.90;;;;;;5058820;28;20498;-74
2022/10/10 07:45:12;;;;;;;8.33;5.63;;;14.40;99.90;;;;;;5059320;28;20453;-71
2022/10/10 07:47:39;;;;;;;9.23;5.37;;;14.50;99.90;;;;;;5060952;28;20178;-72
2022/10/10 07:50:06;;;;;;;6.77;5.80;;;14.40;99.90;;;;;;5059970;28;20261;-73
2022/10/10 07:52:33;;;;;;;8.93;5.33;;;14.50;99.90;;;;;;5055542;28;20425;-73
2022/10/10 07:54:59;;;;;;;6.07;5.17;;;14.60;99.90;;;;;;5060667;28;20757;-73
2022/10/10 07:57:25;;;;;;;11.90;5.60;;;14.50;99.90;;;;;;5058541;28;20441;-73
2022/10/10 07:59:51;;;;;;;12.13;6.27;;;14.60;99.90;;;;;;5057632;28;20430;-72
2022/10/10 08:02:16;;;;;;;12.37;6.00;;;14.60;99.90;;;;;;5062059;28;20253;-72
2022/10/10 08:04:42;;;;;;;10.60;6.10;;;14.70;99.90;;;;;;5060017;28;20183;-73
2022/10/10 08:07:08;;;;;;;9.40;6.00;;;14.80;99.90;;;;;;5060509;28;20206;-74
2022/10/10 08:09:33;;;;;;;7.13;5.60;;;14.70;99.90;;;;;;5062416;28;20228;-71
2022/10/10 08:11:59;;;;;;;8.10;5.50;;;14.80;99.90;;;;;;5061456;28;20440;-75
2022/10/10 08:14:25;;;;;;;5.73;4.97;;;14.70;99.90;;;;;;5056462;28;20667;-74
2022/10/10 08:16:50;;;;;;;10.43;6.30;;;14.80;99.90;;;;;;5060450;28;20302;-72
2022/10/10 08:19:16;;;;;;;11.93;6.93;;;15.00;99.90;;;;;;5061640;28;20832;-72
2022/10/10 08:21:41;;;;;;;6.80;6.07;;;15.10;99.90;;;;;;5062547;28;20222;-74
2022/10/10 08:24:07;;;;;;;8.30;5.90;;;15.30;99.90;;;;;;5060784;28;20167;-73
2022/10/10 08:26:33;;;;;;;7.60;5.77;;;15.40;99.90;;;;;;5061854;28;20187;-73
2022/10/10 08:28:59;;;;;;;9.10;6.37;;;15.40;99.90;;;;;;5061330;28;20432;-74
2022/10/10 08:31:25;;;;;;;9.50;5.83;;;15.50;99.90;;;;;;5042682;28;20274;-72
2022/10/10 08:33:51;;;;;;;8.30;6.40;;;15.70;99.90;;;;;;5058156;28;20236;-72
2022/10/10 08:36:21;;;;;;;11.03;6.20;;;15.70;99.90;;;;;;5060831;28;20206;-73
2022/10/10 08:38:47;;;;;;;7.50;5.87;;;15.70;99.90;;;;;;5060054;28;20886;-73
2022/10/10 08:41:41;;;;;;;9.53;6.50;;;15.70;99.90;;;;;;5054031;28;20418;-73
2022/10/10 08:44:13;;;;;;;8.77;6.10;;;15.80;99.90;;;;;;5056123;28;20425;-73
2022/10/10 08:46:45;;;;;;;11.67;5.83;;;15.90;99.90;;;;;;5039495;28;20449;-72
2022/10/10 08:49:19;;;;;;;8.17;5.43;;;16.00;99.90;;;;;;5056262;28;20483;-73
2022/10/10 08:51:50;;;;;;;10.07;5.77;;;16.10;99.90;;;;;;5038872;28;20430;-73
2022/10/10 08:54:18;;;;;;;9.13;5.50;;;16.10;99.90;;;;;;5054587;28;20441;-72
2022/10/10 08:56:43;;;;;;;7.83;6.30;;;16.10;99.90;;;;;;5058078;28;20433;-72
2022/10/10 08:59:15;;;;;;;9.57;6.50;;;16.00;99.90;;;;;;5051517;28;20438;-72
2022/10/10 09:01:41;;;;;;;6.70;6.00;;;16.10;99.90;;;;;;5053654;28;20677;-73
2022/10/10 09:04:14;;;;;;;8.33;6.00;;;16.20;99.90;;;;;;5057644;28;20509;-72
2022/10/10 09:06:56;;;;;;;7.10;6.30;;;16.20;99.90;;;;;;5032319;28;20449;-72
2022/10/10 09:09:39;;;;;;;8.97;6.47;;;16.40;99.90;;;;;;5054072;28;20624;-73
2022/10/10 09:12:28;;;;;;;11.57;8.63;;;16.50;99.90;;;;;;5054364;28;20415;-73
2022/10/10 09:15:11;;;;;;;11.63;7.23;;;16.60;99.90;;;;;;5054167;28;20445;-72
2022/10/10 09:17:48;;;;;;;10.13;6.27;;;16.60;99.90;;;;;;5059263;28;20422;-73
2022/10/10 09:20:13;;;;;;;7.17;6.27;;;16.60;99.90;;;;;;5054540;28;20445;-72
2022/10/10 09:22:50;;;;;;;8.30;6.40;;;16.70;99.90;;;;;;5056262;28;20514;-73
2022/10/10 09:25:22;;;;;;;8.40;7.07;;;16.80;99.90;;;;;;5053262;28;20175;-72
2022/10/10 09:28:04;;;;;;;9.03;6.40;;;16.80;99.90;;;;;;5055096;28;20436;-72
2022/10/10 09:30:34;;;;;;;6.80;5.50;;;16.90;99.90;;;;;;5056487;28;20968;-72
2022/10/10 09:33:24;;;;;;;7.07;5.63;;;17.00;99.90;;;;;;5036138;28;20486;-73
2022/10/10 09:35:53;;;;;;;8.47;5.70;;;17.10;99.90;;;;;;5033251;28;21184;-72
2022/10/10 09:38:33;;;;;;;10.70;6.53;;;17.10;99.90;;;;;;5038032;28;20990;-72
2022/10/10 09:41:32;;;;;;;7.33;6.53;;;17.10;99.90;;;;;;5056890;28;20504;-73
2022/10/10 09:44:01;;;;;;;8.63;5.97;;;17.20;99.90;;;;;;5013138;28;20701;-73
2022/10/10 09:46:27;;;;;;;9.47;6.63;;;17.20;99.90;;;;;;5056338;28;20444;-73
2022/10/10 09:48:53;;;;;;;8.97;5.63;;;17.30;99.90;;;;;;5050129;28;20441;-74
2022/10/10 09:51:20;;;;;;;9.50;6.30;;;17.40;99.90;;;;;;5055836;28;20212;-74
2022/10/10 09:53:47;;;;;;;5.47;4.70;;;17.40;99.90;;;;;;5056807;28;20417;-74
2022/10/10 09:56:25;;;;;;;8.77;5.80;;;17.50;99.90;;;;;;5050133;28;20468;-73
2022/10/10 09:58:53;;;;;;;8.50;5.70;;;17.60;99.90;;;;;;5056349;28;20426;-72
2022/10/10 10:01:23;;;;;;;7.70;5.20;;;17.60;99.90;;;;;;5060892;28;20425;-73
2022/10/10 10:04:15;;;;;;;6.67;5.67;;;17.70;99.90;;;;;;5057412;28;20460;-73
2022/10/10 10:06:50;;;;;;;7.73;5.40;;;17.80;99.90;;;;;;5060093;28;20607;-72
2022/10/10 10:09:19;;;;;;;12.57;7.40;;;17.90;99.90;;;;;;5052295;28;20992;-72
2022/10/10 10:11:55;;;;;;;6.17;5.57;;;17.90;99.90;;;;;;5056310;28;20487;-74
2022/10/10 10:14:25;;;;;;;10.20;5.20;;;17.90;99.90;;;;;;5057877;28;20428;-72
2022/10/10 10:16:52;;;;;;;6.70;5.07;;;18.00;99.90;;;;;;5056286;28;20467;-71
2022/10/10 10:19:34;;;;;;;5.87;4.83;;;18.00;99.90;;;;;;5060030;28;20487;-72
2022/10/10 10:21:59;;;;;;;6.43;5.40;;;18.10;99.90;;;;;;5057632;28;20519;-74
2022/10/10 10:24:35;;;;;;;9.00;5.43;;;18.30;99.90;;;;;;5041716;28;20521;-74
2022/10/10 10:27:14;;;;;;;7.20;5.50;;;18.40;99.90;;;;;;5058875;28;20191;-73
2022/10/10 10:29:46;;;;;;;7.83;5.00;;;18.50;99.90;;;;;;5055914;28;20529;-72
2022/10/10 10:32:45;;;;;;;10.47;5.10;;;18.60;99.90;;;;;;5052477;28;20427;-72
2022/10/10 10:35:27;;;;;;;8.53;4.20;;;18.70;99.90;;;;;;5056479;28;20995;-73
2022/10/10 10:38:27;;;;;;;8.13;5.07;;;18.70;99.90;;;;;;5056398;28;20481;-73
2022/10/10 10:41:00;;;;;;;8.40;4.93;;;18.70;99.90;;;;;;5058334;28;20551;-73
2022/10/10 10:43:29;;;;;;;5.70;4.47;;;18.70;99.90;;;;;;5058504;28;20485;-72
2022/10/10 10:46:13;;;;;;;13.27;4.93;;;18.80;99.90;;;;;;5054316;28;20449;-75
2022/10/10 10:48:46;;;;;;;9.57;5.00;;;18.90;99.90;;;;;;5056743;28;20452;-74
2022/10/10 10:51:20;;;;;;;8.57;5.10;;;18.90;99.90;;;;;;5052696;28;21004;-73
2022/10/10 10:53:55;;;;;;;8.50;4.70;;;19.00;99.90;;;;;;5059283;28;20440;-72
2022/10/10 10:56:37;;;;;;;7.60;4.90;;;19.10;99.90;;;;;;5055629;28;21012;-74
2022/10/10 10:59:26;;;;;;;7.57;4.70;;;19.10;99.90;;;;;;5055033;28;20441;-72
2022/10/10 11:02:09;;;;;;;11.50;5.17;;;19.30;99.90;;;;;;5061495;28;20428;-74
2022/10/10 11:05:10;;;;;;;7.70;4.90;;;19.30;99.90;;;;;;5046918;28;20847;-74
2022/10/10 11:07:56;;;;;;;10.03;3.83;;;19.40;99.90;;;;;;5062722;28;20427;-73
2022/10/10 11:10:47;;;;;;;5.50;4.10;;;19.50;99.90;;;;;;5033823;28;20441;-77
2022/10/10 11:13:27;;;;;;;4.50;3.53;;;19.60;99.90;;;;;;5061201;28;20429;-73
2022/10/10 11:16:00;;;;;;;8.23;4.43;;;19.70;99.90;;;;;;5061316;28;20471;-73
2022/10/10 11:18:42;;;;;;;7.00;3.97;;;19.80;99.90;;;;;;5063405;28;20421;-75
2022/10/10 11:21:15;;;;;;;4.90;4.07;;;19.90;99.90;;;;;;5059689;28;21342;-70
2022/10/10 11:24:09;;;;;;;5.50;3.77;;;19.90;99.90;;;;;;5062514;28;20501;-73
2022/10/10 11:26:49;;;;;;;5.87;4.30;;;19.90;99.90;;;;;;5054351;28;20771;-74
2022/10/10 11:29:20;;;;;;;10.63;4.40;;;20.00;99.90;;;;;;5062836;28;20444;-74
2022/10/10 11:31:57;;;;;;;9.50;4.53;;;20.10;99.90;;;;;;5062488;28;20428;-74
2022/10/10 11:34:54;;;;;;;9.00;4.60;;;20.30;99.90;;;;;;5062299;28;20416;-73
2022/10/10 11:37:28;;;;;;;5.10;3.50;;;20.40;99.90;;;;;;5050396;28;20483;-74
2022/10/10 11:39:55;;;;;;;8.60;3.90;;;20.60;99.90;;;;;;5061474;28;20453;-73
2022/10/10 11:42:25;;;;;;;9.23;4.43;;;20.80;99.90;;;;;;5060144;28;20865;-73
2022/10/10 11:45:15;;;;;;;6.73;4.03;;;20.90;99.90;;;;;;5056914;28;22110;-73
2022/10/10 11:47:55;;;;;;;11.17;4.27;;;21.20;99.90;;;;;;5060335;28;20430;-73
2022/10/10 11:50:29;;;;;;;5.10;4.00;;;21.70;99.90;;;;;;5061564;28;20418;-73
2022/10/10 11:52:59;;;;;;;7.87;4.30;;;22.40;99.90;;;;;;5063403;28;20508;-73
2022/10/10 11:55:43;;;;;;;7.17;4.20;;;22.80;99.90;;;;;;5045879;28;20444;-74
2022/10/10 11:58:08;;;;;;;9.20;4.70;;;23.20;99.90;;;;;;5060425;28;20422;-74
2022/10/10 12:00:43;;;;;;;7.87;5.20;;;23.40;99.90;;;;;;5059064;28;20461;-74
2022/10/10 12:03:09;;;;;;;9.60;4.83;;;23.70;99.90;;;;;;5058438;28;20203;-74
2022/10/10 12:06:02;;;;;;;6.23;4.20;;;23.90;99.90;;;;;;5058548;28;20520;-73
2022/10/10 12:08:41;;;;;;;8.50;4.10;;;24.30;99.90;;;;;;5052940;28;20548;-73
2022/10/10 12:11:11;;;;;;;6.47;4.67;;;24.70;99.90;;;;;;5057098;28;20470;-73
2022/10/10 12:13:43;;;;;;;8.70;3.90;;;24.90;99.90;;;;;;5058882;28;20445;-73
2022/10/10 12:16:19;;;;;;;10.40;5.40;;;24.90;99.90;;;;;;5043698;28;20444;-73
2022/10/10 12:18:59;;;;;;;6.10;3.77;;;25.20;99.90;;;;;;5059057;28;20429;-73
2022/10/10 12:21:27;;;;;;;5.77;3.53;;;25.20;99.90;;;;;;5054949;28;20429;-74
2022/10/10 12:24:03;;;;;;;6.73;4.20;;;25.50;99.90;;;;;;5057426;28;20581;-74
2022/10/10 12:26:51;;;;;;;7.10;4.40;;;25.70;99.90;;;;;;5060349;28;20964;-74
2022/10/10 12:29:45;;;;;;;6.53;3.50;;;26.10;99.90;;;;;;5060194;28;21319;-74
2022/10/10 12:32:14;;;;;;;10.20;4.50;;;25.90;99.90;;;;;;5056371;28;20699;-73
2022/10/10 12:34:57;;;;;;;5.10;4.00;;;25.80;99.90;;;;;;5060140;28;20512;-74
2022/10/10 12:37:28;;;;;;;8.87;4.03;;;25.90;99.90;;;;;;5061174;28;20554;-73
2022/10/10 12:40:18;;;;;;;11.50;4.00;;;25.90;99.90;;;;;;5056156;28;20445;-74
2022/10/10 12:42:47;;;;;;;6.67;5.30;;;26.00;99.90;;;;;;5061841;28;20581;-73
2022/10/10 12:45:27;;;;;;;13.83;5.10;;;26.00;99.90;;;;;;5058038;28;21000;-74
2022/10/10 12:48:00;;;;;;;9.00;5.30;;;25.90;99.90;;;;;;5058717;28;20464;-72
2022/10/10 12:50:33;;;;;;;8.37;4.07;;;25.80;99.90;;;;;;5050568;28;20433;-73
2022/10/10 12:53:02;;;;;;;10.70;5.60;;;25.90;99.90;;;;;;5032451;28;20981;-73
2022/10/10 12:55:43;;;;;;;9.23;4.30;;;26.00;99.90;;;;;;5058196;28;20475;-73
2022/10/10 12:58:33;;;;;;;7.63;4.00;;;26.00;99.90;;;;;;5045894;28;20520;-73
2022/10/10 13:01:02;;;;;;;7.03;4.57;;;25.90;99.90;;;;;;5058503;28;20437;-73
2022/10/10 13:03:31;;;;;;;10.03;4.03;;;26.00;99.90;;;;;;5058011;28;20552;-73